Time;durP1;ratioP1;P1;durP2;ratioP2;P2;SDS_P1;SDS_P2;PMS_P1;PMS_P2;Temp;Humidity;BMP_temperature;BMP_pressure;BME280_temperature;BME280_humidity;BME280_pressure;Samples;Min_cycle;Max_cycle;Signal;HPM_P1;HPM_P2
2021/11/22 00:04:09;;;;;;;2.47;1.30;;;16.00;58.30;;;;;;20713818;28;20054;-77
2021/11/22 00:14:10;;;;;;;0.90;0.60;;;16.00;58.30;;;;;;20745420;28;20033;-78
2021/11/22 00:24:11;;;;;;;1.80;0.60;;;16.00;58.20;;;;;;20712364;28;20442;-78
2021/11/22 00:34:12;;;;;;;1.77;0.82;;;16.00;58.20;;;;;;20728243;28;20040;-78
2021/11/22 00:44:31;;;;;;;1.55;0.85;;;16.00;58.10;;;;;;20716529;28;20046;-78
2021/11/22 00:54:33;;;;;;;1.58;0.90;;;16.00;58.10;;;;;;20694069;28;20129;-77
2021/11/22 01:04:36;;;;;;;1.88;0.77;;;16.00;58.10;;;;;;20725339;28;20075;-78
2021/11/22 01:14:40;;;;;;;3.55;0.70;;;16.00;58.10;;;;;;20725607;28;20072;-78
2021/11/22 01:24:41;;;;;;;2.75;0.90;;;16.00;58.20;;;;;;20724444;28;20057;-77
2021/11/22 01:34:42;;;;;;;2.80;1.05;;;16.00;58.30;;;;;;20708003;28;20038;-78
2021/11/22 01:44:44;;;;;;;1.50;0.88;;;16.00;58.20;;;;;;20723945;28;20048;-77
2021/11/22 01:54:49;;;;;;;1.88;0.82;;;16.00;58.20;;;;;;20707342;28;20034;-77
2021/11/22 02:04:50;;;;;;;2.10;0.80;;;15.90;58.20;;;;;;20722926;28;20567;-78
2021/11/22 02:14:51;;;;;;;1.55;0.65;;;16.10;58.10;;;;;;20722904;28;20120;-78
2021/11/22 02:24:51;;;;;;;2.27;0.50;;;17.00;56.10;;;;;;20706177;28;20041;-78
2021/11/22 02:34:52;;;;;;;1.08;0.63;;;18.10;53.60;;;;;;20745025;28;20364;-79
2021/11/22 02:44:53;;;;;;;1.17;0.40;;;19.10;51.20;;;;;;20703681;28;20128;-79
2021/11/22 02:54:53;;;;;;;1.23;0.70;;;19.60;49.60;;;;;;20719181;28;20121;-78
2021/11/22 03:04:54;;;;;;;0.20;0.20;;;19.80;48.80;;;;;;20734443;28;20038;-78
2021/11/22 03:14:55;;;;;;;0.65;0.50;;;19.90;48.40;;;;;;20702399;28;20163;-77
2021/11/22 03:24:57;;;;;;;0.52;0.30;;;19.10;49.50;;;;;;20716814;28;20125;-78
2021/11/22 03:34:59;;;;;;;0.93;0.50;;;18.30;51.10;;;;;;20699809;28;20388;-78
2021/11/22 03:45:00;;;;;;;0.47;0.47;;;17.50;52.60;;;;;;20698899;28;20056;-78
2021/11/22 03:55:00;;;;;;;0.60;0.50;;;16.90;54.70;;;;;;20730784;28;20080;-77
2021/11/22 04:05:03;;;;;;;0.68;0.40;;;16.50;55.30;;;;;;20729778;28;20137;-77
2021/11/22 04:15:05;;;;;;;0.98;0.25;;;16.10;56.30;;;;;;20729645;28;20041;-78
2021/11/22 04:25:08;;;;;;;0.75;0.60;;;15.90;56.90;;;;;;20728577;28;20037;-79
2021/11/22 04:35:12;;;;;;;0.45;0.32;;;15.80;57.50;;;;;;20728265;28;20064;-78
2021/11/22 04:45:21;;;;;;;0.70;0.30;;;15.70;57.70;;;;;;20710738;28;20562;-78
2021/11/22 04:55:22;;;;;;;0.40;0.30;;;15.70;57.80;;;;;;20724818;28;20073;-78
2021/11/22 05:05:24;;;;;;;0.40;0.20;;;15.70;57.90;;;;;;20709158;28;20057;-77
2021/11/22 05:15:25;;;;;;;1.27;0.30;;;15.70;57.90;;;;;;20693010;28;20288;-78
2021/11/22 05:25:26;;;;;;;0.65;0.30;;;15.70;58.00;;;;;;20724718;28;20026;-79
2021/11/22 05:35:27;;;;;;;2.63;0.52;;;15.60;58.10;;;;;;20724619;28;20080;-77
2021/11/22 05:45:27;;;;;;;0.20;0.20;;;15.60;58.10;;;;;;20707081;28;20173;-78
2021/11/22 05:55:38;;;;;;;0.80;0.30;;;15.60;58.10;;;;;;20675223;28;20476;-75
2021/11/22 06:05:39;;;;;;;0.55;0.50;;;15.50;58.30;;;;;;20723604;28;20369;-78
2021/11/22 06:15:42;;;;;;;0.30;0.30;;;15.40;58.30;;;;;;20724063;28;20036;-78
2021/11/22 06:25:44;;;;;;;0.40;0.30;;;15.30;58.50;;;;;;20691098;28;20052;-77
2021/11/22 06:35:44;;;;;;;0.63;0.43;;;15.20;58.70;;;;;;20706118;28;20080;-76
2021/11/22 06:45:45;;;;;;;0.43;0.40;;;15.10;59.00;;;;;;20714354;28;20033;-75
2021/11/22 06:55:45;;;;;;;1.50;0.60;;;14.90;59.00;;;;;;20719120;28;20030;-78
2021/11/22 07:05:48;;;;;;;2.97;0.60;;;14.70;59.30;;;;;;20729231;28;20159;-78
2021/11/22 07:15:48;;;;;;;0.93;0.50;;;14.60;59.60;;;;;;20716385;28;20041;-76
2021/11/22 07:25:50;;;;;;;1.42;0.63;;;14.50;59.90;;;;;;20687978;28;20384;-75
2021/11/22 07:35:51;;;;;;;0.75;0.32;;;14.30;60.20;;;;;;20701202;28;20100;-76
2021/11/22 07:45:51;;;;;;;1.98;0.50;;;14.20;60.40;;;;;;20713922;28;20041;-76
2021/11/22 07:55:52;;;;;;;1.23;0.60;;;14.20;60.80;;;;;;20700889;28;20064;-78
2021/11/22 08:05:56;;;;;;;0.77;0.45;;;14.10;60.90;;;;;;20657258;28;20388;-76
2021/11/22 08:16:02;;;;;;;0.73;0.40;;;14.10;61.00;;;;;;20684289;28;20053;-76
2021/11/22 08:26:03;;;;;;;0.90;0.50;;;14.00;61.10;;;;;;20709449;28;20052;-74
2021/11/22 08:36:04;;;;;;;0.40;0.40;;;14.10;61.30;;;;;;20685274;28;20037;-73
2021/11/22 08:46:04;;;;;;;0.20;0.20;;;14.50;60.50;;;;;;20706522;28;20108;-73
2021/11/22 08:56:05;;;;;;;2.28;0.65;;;16.00;57.00;;;;;;20676897;28;20042;-73
2021/11/22 09:06:05;;;;;;;0.60;0.28;;;17.40;53.20;;;;;;20725654;28;20045;-74
2021/11/22 09:16:06;;;;;;;2.60;0.40;;;18.40;50.60;;;;;;20707560;28;20037;-74
2021/11/22 09:26:07;;;;;;;1.00;0.47;;;18.70;49.30;;;;;;20707476;28;20034;-74
2021/11/22 09:36:07;;;;;;;0.67;0.40;;;18.10;50.10;;;;;;20705644;28;20046;-76
2021/11/22 09:46:08;;;;;;;0.40;0.35;;;17.30;51.40;;;;;;20718528;28;20388;-77
2021/11/22 09:56:10;;;;;;;2.15;0.45;;;16.60;52.80;;;;;;20721704;28;20092;-76
2021/11/22 10:06:10;;;;;;;1.90;0.32;;;16.10;53.80;;;;;;20734872;28;20119;-76
2021/11/22 10:16:11;;;;;;;1.77;0.60;;;15.70;54.70;;;;;;20714899;28;20041;-75
2021/11/22 10:26:14;;;;;;;0.77;0.30;;;15.50;55.60;;;;;;20737976;28;20583;-78
2021/11/22 10:36:17;;;;;;;0.28;0.25;;;15.30;56.10;;;;;;20722151;28;20046;-77
2021/11/22 10:46:29;;;;;;;0.20;0.20;;;15.10;56.50;;;;;;20702971;28;20038;-75
2021/11/22 10:56:39;;;;;;;0.25;0.20;;;15.00;56.90;;;;;;20701249;28;20041;-76
2021/11/22 11:06:47;;;;;;;3.15;0.40;;;14.90;57.10;;;;;;21088866;23;20477;-80
2021/11/22 11:16:47;;;;;;;0.52;0.25;;;14.90;57.40;;;;;;20633107;28;20057;-75
2021/11/22 11:26:48;;;;;;;0.90;0.45;;;14.90;57.40;;;;;;20650780;28;20125;-74
2021/11/22 11:37:11;;;;;;;4.00;0.68;;;15.00;57.40;;;;;;20636408;28;20026;-74
2021/11/22 11:47:40;;;;;;;0.95;0.30;;;15.00;57.30;;;;;;20637754;28;20037;-73
2021/11/22 11:57:40;;;;;;;2.60;0.35;;;15.00;57.20;;;;;;20631420;28;20066;-75
2021/11/22 12:07:44;;;;;;;2.00;0.30;;;15.00;57.00;;;;;;20631358;28;20069;-77
2021/11/22 12:17:45;;;;;;;2.40;0.30;;;15.10;57.50;;;;;;20627150;28;20080;-79
2021/11/22 12:27:45;;;;;;;0.98;0.28;;;15.00;56.70;;;;;;20651880;28;20038;-78
2021/11/22 12:37:46;;;;;;;0.43;0.30;;;15.00;56.40;;;;;;20650629;28;20495;-78
2021/11/22 12:47:47;;;;;;;0.50;0.32;;;15.10;56.30;;;;;;20633091;28;20506;-80
2021/11/22 12:57:49;;;;;;;0.98;0.40;;;15.20;56.10;;;;;;20648363;28;20029;-79
2021/11/22 13:07:50;;;;;;;0.73;0.38;;;15.20;56.00;;;;;;20634249;28;20042;-79
2021/11/22 13:17:50;;;;;;;0.47;0.17;;;15.20;55.80;;;;;;20626779;28;20143;-79
2021/11/22 13:28:08;;;;;;;1.55;0.43;;;15.20;55.70;;;;;;20625796;28;20046;-78
2021/11/22 13:38:17;;;;;;;2.30;0.55;;;15.30;55.80;;;;;;20619860;28;20037;-73
2021/11/22 13:48:18;;;;;;;1.17;0.30;;;15.30;55.60;;;;;;20609646;28;20047;-74
2021/11/22 13:58:19;;;;;;;1.75;0.50;;;15.30;55.60;;;;;;20623132;28;20104;-76
2021/11/22 14:08:19;;;;;;;0.77;0.30;;;15.20;55.50;;;;;;20640110;28;20121;-75
2021/11/22 14:18:21;;;;;;;1.05;0.60;;;15.20;55.50;;;;;;20625700;28;20057;-74
2021/11/22 14:28:21;;;;;;;0.65;0.40;;;15.20;55.50;;;;;;20630106;28;20038;-75
2021/11/22 14:38:23;;;;;;;1.63;0.30;;;15.10;55.50;;;;;;20624614;28;20586;-74
2021/11/22 14:48:27;;;;;;;0.77;0.63;;;15.10;55.50;;;;;;20559484;28;20750;-77
2021/11/22 14:58:47;;;;;;;228.98;24.13;;;15.10;55.60;;;;;;20576136;28;20057;-73
2021/11/22 15:09:00;;;;;;;52.55;5.65;;;15.10;55.90;;;;;;20560403;28;20039;-75
2021/11/22 15:19:02;;;;;;;23.50;4.18;;;15.00;56.70;;;;;;20544546;28;20035;-74
2021/11/22 15:29:03;;;;;;;9.77;2.88;;;14.90;57.20;;;;;;20575292;28;20539;-75
2021/11/22 15:39:05;;;;;;;3.45;0.80;;;14.80;57.30;;;;;;20622208;28;20042;-74
2021/11/22 15:49:05;;;;;;;8.82;1.70;;;15.30;56.90;;;;;;20633472;28;20373;-78
2021/11/22 15:59:06;;;;;;;2.72;0.85;;;16.70;54.50;;;;;;20619587;28;20039;-77
2021/11/22 16:09:10;;;;;;;3.53;0.90;;;18.40;50.70;;;;;;20635700;28;20058;-75
2021/11/22 16:19:11;;;;;;;9.13;1.48;;;19.50;47.40;;;;;;20620911;28;20073;-74
2021/11/22 16:29:22;;;;;;;10.82;2.45;;;19.80;46.70;;;;;;20619250;28;20042;-76
2021/11/22 16:39:23;;;;;;;6.00;2.47;;;19.90;46.10;;;;;;20567410;28;20046;-72
2021/11/22 16:49:24;;;;;;;5.70;2.00;;;19.70;45.70;;;;;;20618642;28;20069;-74
2021/11/22 16:59:27;;;;;;;2.85;1.98;;;19.00;46.80;;;;;;20624163;28;20396;-73
2021/11/22 17:09:28;;;;;;;3.92;2.08;;;18.10;48.10;;;;;;20634917;28;20042;-73
2021/11/22 17:19:30;;;;;;;2.83;1.50;;;17.50;49.30;;;;;;20631285;28;20038;-74
2021/11/22 17:29:31;;;;;;;5.55;1.50;;;17.00;50.30;;;;;;20616201;28;20492;-74
2021/11/22 17:39:31;;;;;;;4.80;1.48;;;16.70;51.00;;;;;;20612137;28;20045;-76
2021/11/22 17:49:32;;;;;;;3.42;1.25;;;16.40;51.60;;;;;;20612254;28;20121;-73
2021/11/22 17:59:33;;;;;;;3.90;1.08;;;16.20;52.00;;;;;;20628372;28;20064;-73
2021/11/22 18:09:35;;;;;;;4.82;1.20;;;16.10;52.20;;;;;;20641657;28;20109;-74
2021/11/22 18:19:35;;;;;;;2.30;1.15;;;16.10;52.50;;;;;;20677800;28;20038;-80
2021/11/22 18:29:37;;;;;;;3.17;1.48;;;16.00;52.50;;;;;;20630298;28;20030;-79
2021/11/22 18:39:38;;;;;;;3.15;1.60;;;16.10;52.30;;;;;;20628732;28;20057;-79
2021/11/22 18:49:40;;;;;;;3.42;1.25;;;16.30;52.10;;;;;;20643471;28;20038;-79
2021/11/22 18:59:40;;;;;;;3.03;1.50;;;16.40;52.40;;;;;;20639359;28;20078;-79
2021/11/22 19:09:45;;;;;;;3.85;1.00;;;16.50;51.50;;;;;;20656250;28;20049;-78
2021/11/22 19:19:46;;;;;;;1.40;1.05;;;16.50;51.30;;;;;;20622023;28;20048;-79
2021/11/22 19:29:49;;;;;;;4.22;1.65;;;16.50;51.10;;;;;;20619851;28;20074;-79
2021/11/22 19:39:51;;;;;;;3.08;2.05;;;16.50;50.90;;;;;;20621410;28;20034;-78
2021/11/22 19:49:52;;;;;;;4.00;1.90;;;16.50;50.80;;;;;;20649321;28;20038;-79
2021/11/22 19:59:53;;;;;;;4.05;2.05;;;16.50;50.90;;;;;;20652634;28;20101;-80
2021/11/22 20:09:56;;;;;;;2.13;1.40;;;16.60;50.90;;;;;;20635830;28;20038;-79
2021/11/22 20:19:56;;;;;;;3.58;1.60;;;16.60;51.50;;;;;;20652113;28;20065;-79
2021/11/22 20:30:00;;;;;;;1.95;1.30;;;16.50;50.90;;;;;;20603698;28;20053;-79
2021/11/22 20:40:00;;;;;;;2.95;1.60;;;16.50;50.90;;;;;;20619219;28;20371;-80
2021/11/22 20:50:02;;;;;;;3.50;1.48;;;16.50;51.40;;;;;;20617762;28;20038;-79
2021/11/22 21:00:12;;;;;;;2.75;1.25;;;16.40;50.80;;;;;;20617296;28;20053;-80
2021/11/22 21:10:16;;;;;;;4.93;1.75;;;16.40;50.90;;;;;;20650709;28;20044;-80
2021/11/22 21:20:17;;;;;;;5.05;2.25;;;16.40;50.80;;;;;;20568613;28;20035;-79
2021/11/22 21:30:21;;;;;;;2.30;1.73;;;16.30;50.80;;;;;;20568482;28;20035;-79
2021/11/22 21:40:23;;;;;;;2.28;1.48;;;16.30;50.90;;;;;;20551326;28;20066;-79
2021/11/22 21:50:25;;;;;;;3.88;1.98;;;16.30;50.90;;;;;;20611894;28;20034;-82
2021/11/22 22:00:26;;;;;;;3.30;1.55;;;16.30;51.70;;;;;;20614987;28;20120;-78
2021/11/22 22:10:27;;;;;;;3.00;1.83;;;16.30;51.00;;;;;;20630925;28;20035;-78
2021/11/22 22:20:32;;;;;;;5.47;1.73;;;16.30;51.10;;;;;;20631342;28;20027;-78
2021/11/22 22:30:32;;;;;;;2.78;2.00;;;16.20;51.10;;;;;;20630307;28;20053;-79
2021/11/22 22:40:33;;;;;;;3.38;1.75;;;16.30;51.20;;;;;;20613768;28;20038;-78
2021/11/22 22:50:34;;;;;;;2.70;1.35;;;16.30;51.10;;;;;;20600357;28;20460;-78
2021/11/22 23:00:36;;;;;;;2.78;1.45;;;16.20;51.10;;;;;;20628572;28;20508;-79
2021/11/22 23:10:37;;;;;;;2.67;1.30;;;16.20;51.20;;;;;;20658623;28;20054;-79
2021/11/22 23:20:39;;;;;;;2.97;1.35;;;16.20;51.40;;;;;;20655786;28;20069;-79
2021/11/22 23:30:41;;;;;;;2.35;1.23;;;16.20;51.40;;;;;;20640489;28;20397;-79
2021/11/22 23:40:43;;;;;;;2.38;1.20;;;16.20;51.40;;;;;;20639620;28;20191;-78
2021/11/22 23:50:45;;;;;;;2.53;1.33;;;16.20;51.40;;;;;;20639544;28;20431;-79
